sensor_id;sensor_type;location;lat;lon;timestamp;P1;durP1;ratioP1;P2;durP2;ratioP2
4074;SDS011;2052;53.522;9.806;2023-05-23T00:02:18;18.07;;;14.53;;
4074;SDS011;2052;53.522;9.806;2023-05-23T00:04:44;19.03;;;15.63;;
4074;SDS011;2052;53.522;9.806;2023-05-23T00:07:11;20.93;;;15.87;;
4074;SDS011;2052;53.522;9.806;2023-05-23T00:09:37;17.00;;;15.20;;
4074;SDS011;2052;53.522;9.806;2023-05-23T00:12:04;21.37;;;15.47;;
4074;SDS011;2052;53.522;9.806;2023-05-23T00:14:31;17.50;;;15.33;;
4074;SDS011;2052;53.522;9.806;2023-05-23T00:17:00;17.20;;;15.10;;
4074;SDS011;2052;53.522;9.806;2023-05-23T00:19:27;16.70;;;14.40;;
4074;SDS011;2052;53.522;9.806;2023-05-23T00:21:53;17.67;;;14.03;;
4074;SDS011;2052;53.522;9.806;2023-05-23T00:24:22;17.20;;;14.13;;
4074;SDS011;2052;53.522;9.806;2023-05-23T00:26:49;22.80;;;14.67;;
4074;SDS011;2052;53.522;9.806;2023-05-23T00:29:16;18.40;;;14.80;;
4074;SDS011;2052;53.522;9.806;2023-05-23T00:31:42;20.80;;;15.40;;
4074;SDS011;2052;53.522;9.806;2023-05-23T00:34:11;18.33;;;14.60;;
4074;SDS011;2052;53.522;9.806;2023-05-23T00:36:38;19.57;;;14.80;;
4074;SDS011;2052;53.522;9.806;2023-05-23T00:39:05;17.30;;;14.63;;
4074;SDS011;2052;53.522;9.806;2023-05-23T00:41:32;18.47;;;14.73;;
4074;SDS011;2052;53.522;9.806;2023-05-23T00:44:00;18.63;;;15.27;;
4074;SDS011;2052;53.522;9.806;2023-05-23T00:46:27;15.83;;;14.17;;
4074;SDS011;2052;53.522;9.806;2023-05-23T00:48:53;18.10;;;14.10;;
4074;SDS011;2052;53.522;9.806;2023-05-23T00:51:21;16.40;;;13.80;;
4074;SDS011;2052;53.522;9.806;2023-05-23T00:53:48;19.70;;;15.80;;
4074;SDS011;2052;53.522;9.806;2023-05-23T00:56:14;17.80;;;14.10;;
4074;SDS011;2052;53.522;9.806;2023-05-23T00:58:41;21.33;;;15.63;;
4074;SDS011;2052;53.522;9.806;2023-05-23T01:01:08;18.23;;;15.50;;
4074;SDS011;2052;53.522;9.806;2023-05-23T01:03:37;17.17;;;15.30;;
4074;SDS011;2052;53.522;9.806;2023-05-23T01:06:03;20.23;;;15.57;;
4074;SDS011;2052;53.522;9.806;2023-05-23T01:08:31;24.60;;;18.10;;
4074;SDS011;2052;53.522;9.806;2023-05-23T01:10:59;29.57;;;21.00;;
4074;SDS011;2052;53.522;9.806;2023-05-23T01:13:30;34.80;;;27.43;;
4074;SDS011;2052;53.522;9.806;2023-05-23T01:16:01;46.60;;;32.87;;
4074;SDS011;2052;53.522;9.806;2023-05-23T01:18:32;40.77;;;32.60;;
4074;SDS011;2052;53.522;9.806;2023-05-23T01:21:02;47.43;;;34.73;;
4074;SDS011;2052;53.522;9.806;2023-05-23T01:23:41;53.40;;;37.17;;
4074;SDS011;2052;53.522;9.806;2023-05-23T01:26:45;55.00;;;37.50;;
4074;SDS011;2052;53.522;9.806;2023-05-23T01:29:30;57.10;;;38.47;;
4074;SDS011;2052;53.522;9.806;2023-05-23T01:31:57;55.57;;;38.80;;
4074;SDS011;2052;53.522;9.806;2023-05-23T01:34:25;57.70;;;38.27;;
4074;SDS011;2052;53.522;9.806;2023-05-23T01:36:53;57.77;;;38.90;;
4074;SDS011;2052;53.522;9.806;2023-05-23T01:39:21;63.17;;;40.10;;
4074;SDS011;2052;53.522;9.806;2023-05-23T01:41:48;61.07;;;42.07;;
4074;SDS011;2052;53.522;9.806;2023-05-23T01:44:16;67.63;;;41.40;;
4074;SDS011;2052;53.522;9.806;2023-05-23T01:46:44;68.23;;;44.70;;
4074;SDS011;2052;53.522;9.806;2023-05-23T01:49:12;69.07;;;43.80;;
4074;SDS011;2052;53.522;9.806;2023-05-23T01:51:39;73.10;;;45.07;;
4074;SDS011;2052;53.522;9.806;2023-05-23T01:54:06;74.83;;;45.23;;
4074;SDS011;2052;53.522;9.806;2023-05-23T01:56:33;70.40;;;44.57;;
4074;SDS011;2052;53.522;9.806;2023-05-23T01:59:01;74.27;;;46.03;;
4074;SDS011;2052;53.522;9.806;2023-05-23T02:01:28;81.17;;;47.00;;
4074;SDS011;2052;53.522;9.806;2023-05-23T02:03:56;85.50;;;47.60;;
4074;SDS011;2052;53.522;9.806;2023-05-23T02:06:23;83.57;;;45.10;;
4074;SDS011;2052;53.522;9.806;2023-05-23T02:08:50;78.60;;;43.57;;
4074;SDS011;2052;53.522;9.806;2023-05-23T02:11:17;84.20;;;46.33;;
4074;SDS011;2052;53.522;9.806;2023-05-23T02:13:44;88.07;;;46.67;;
4074;SDS011;2052;53.522;9.806;2023-05-23T02:16:10;87.37;;;47.80;;
4074;SDS011;2052;53.522;9.806;2023-05-23T02:18:37;86.07;;;47.43;;
4074;SDS011;2052;53.522;9.806;2023-05-23T02:21:05;93.87;;;45.63;;
4074;SDS011;2052;53.522;9.806;2023-05-23T02:23:32;78.60;;;44.87;;
4074;SDS011;2052;53.522;9.806;2023-05-23T02:25:59;81.50;;;43.90;;
4074;SDS011;2052;53.522;9.806;2023-05-23T02:28:25;76.70;;;43.83;;
4074;SDS011;2052;53.522;9.806;2023-05-23T02:30:52;85.53;;;45.30;;
4074;SDS011;2052;53.522;9.806;2023-05-23T02:33:18;79.10;;;46.13;;
4074;SDS011;2052;53.522;9.806;2023-05-23T02:35:45;82.33;;;44.70;;
4074;SDS011;2052;53.522;9.806;2023-05-23T02:38:15;75.60;;;42.90;;
4074;SDS011;2052;53.522;9.806;2023-05-23T02:40:43;76.40;;;42.70;;
4074;SDS011;2052;53.522;9.806;2023-05-23T02:43:10;82.17;;;45.23;;
4074;SDS011;2052;53.522;9.806;2023-05-23T02:45:36;72.63;;;43.60;;
4074;SDS011;2052;53.522;9.806;2023-05-23T02:48:03;85.03;;;44.87;;
4074;SDS011;2052;53.522;9.806;2023-05-23T02:50:30;79.10;;;42.03;;
4074;SDS011;2052;53.522;9.806;2023-05-23T02:52:56;70.77;;;42.90;;
4074;SDS011;2052;53.522;9.806;2023-05-23T02:55:24;87.33;;;44.50;;
4074;SDS011;2052;53.522;9.806;2023-05-23T02:57:52;80.67;;;44.33;;
4074;SDS011;2052;53.522;9.806;2023-05-23T03:00:18;84.07;;;44.27;;
4074;SDS011;2052;53.522;9.806;2023-05-23T03:02:45;82.07;;;45.10;;
4074;SDS011;2052;53.522;9.806;2023-05-23T03:05:12;78.70;;;43.67;;
4074;SDS011;2052;53.522;9.806;2023-05-23T03:07:38;82.20;;;43.27;;
4074;SDS011;2052;53.522;9.806;2023-05-23T03:10:05;76.07;;;41.87;;
4074;SDS011;2052;53.522;9.806;2023-05-23T03:12:34;85.60;;;43.73;;
4074;SDS011;2052;53.522;9.806;2023-05-23T03:15:01;70.83;;;37.93;;
4074;SDS011;2052;53.522;9.806;2023-05-23T03:17:27;75.27;;;39.27;;
4074;SDS011;2052;53.522;9.806;2023-05-23T03:19:56;65.53;;;37.30;;
4074;SDS011;2052;53.522;9.806;2023-05-23T03:22:22;66.67;;;37.90;;
4074;SDS011;2052;53.522;9.806;2023-05-23T03:24:49;73.73;;;37.40;;
4074;SDS011;2052;53.522;9.806;2023-05-23T03:27:16;64.63;;;38.20;;
4074;SDS011;2052;53.522;9.806;2023-05-23T03:29:44;76.30;;;37.70;;
4074;SDS011;2052;53.522;9.806;2023-05-23T03:32:12;71.67;;;37.30;;
4074;SDS011;2052;53.522;9.806;2023-05-23T03:34:38;69.53;;;37.53;;
4074;SDS011;2052;53.522;9.806;2023-05-23T03:37:05;66.17;;;35.10;;
4074;SDS011;2052;53.522;9.806;2023-05-23T03:39:32;54.40;;;31.97;;
4074;SDS011;2052;53.522;9.806;2023-05-23T03:41:58;58.50;;;34.60;;
4074;SDS011;2052;53.522;9.806;2023-05-23T03:44:25;69.40;;;34.23;;
4074;SDS011;2052;53.522;9.806;2023-05-23T03:46:52;60.07;;;34.73;;
4074;SDS011;2052;53.522;9.806;2023-05-23T03:49:19;61.30;;;34.77;;
4074;SDS011;2052;53.522;9.806;2023-05-23T03:51:46;68.43;;;33.40;;
4074;SDS011;2052;53.522;9.806;2023-05-23T03:54:12;56.67;;;32.93;;
4074;SDS011;2052;53.522;9.806;2023-05-23T03:56:39;55.00;;;30.80;;
4074;SDS011;2052;53.522;9.806;2023-05-23T03:59:05;56.70;;;31.50;;
4074;SDS011;2052;53.522;9.806;2023-05-23T04:01:32;64.33;;;31.97;;
4074;SDS011;2052;53.522;9.806;2023-05-23T04:04:00;57.00;;;32.87;;
4074;SDS011;2052;53.522;9.806;2023-05-23T04:06:27;62.90;;;32.53;;
4074;SDS011;2052;53.522;9.806;2023-05-23T04:08:55;64.43;;;32.80;;
4074;SDS011;2052;53.522;9.806;2023-05-23T04:11:22;65.80;;;34.30;;
4074;SDS011;2052;53.522;9.806;2023-05-23T04:13:49;60.77;;;32.07;;
4074;SDS011;2052;53.522;9.806;2023-05-23T04:16:17;66.87;;;34.30;;
4074;SDS011;2052;53.522;9.806;2023-05-23T04:18:44;71.57;;;33.77;;
4074;SDS011;2052;53.522;9.806;2023-05-23T04:21:12;69.37;;;34.30;;
4074;SDS011;2052;53.522;9.806;2023-05-23T04:23:39;66.07;;;33.20;;
4074;SDS011;2052;53.522;9.806;2023-05-23T04:26:05;59.53;;;31.43;;
4074;SDS011;2052;53.522;9.806;2023-05-23T04:28:34;64.13;;;32.53;;
4074;SDS011;2052;53.522;9.806;2023-05-23T04:31:01;63.37;;;33.07;;
4074;SDS011;2052;53.522;9.806;2023-05-23T04:33:28;64.43;;;33.60;;
4074;SDS011;2052;53.522;9.806;2023-05-23T04:35:54;66.33;;;35.10;;
4074;SDS011;2052;53.522;9.806;2023-05-23T04:38:22;59.87;;;34.13;;
4074;SDS011;2052;53.522;9.806;2023-05-23T04:40:49;66.00;;;33.40;;
4074;SDS011;2052;53.522;9.806;2023-05-23T04:43:16;62.80;;;33.17;;
4074;SDS011;2052;53.522;9.806;2023-05-23T04:45:44;60.47;;;31.37;;
4074;SDS011;2052;53.522;9.806;2023-05-23T04:48:10;61.73;;;32.20;;
4074;SDS011;2052;53.522;9.806;2023-05-23T04:50:41;64.37;;;33.70;;
4074;SDS011;2052;53.522;9.806;2023-05-23T04:53:07;63.60;;;32.97;;
4074;SDS011;2052;53.522;9.806;2023-05-23T04:55:35;64.10;;;34.33;;
4074;SDS011;2052;53.522;9.806;2023-05-23T04:58:02;67.70;;;32.70;;
4074;SDS011;2052;53.522;9.806;2023-05-23T05:00:28;68.87;;;34.67;;
4074;SDS011;2052;53.522;9.806;2023-05-23T05:02:55;64.83;;;36.30;;
4074;SDS011;2052;53.522;9.806;2023-05-23T05:05:21;65.90;;;33.53;;
4074;SDS011;2052;53.522;9.806;2023-05-23T05:07:48;70.40;;;35.33;;
4074;SDS011;2052;53.522;9.806;2023-05-23T05:10:15;78.60;;;36.93;;
4074;SDS011;2052;53.522;9.806;2023-05-23T05:12:43;74.77;;;37.30;;
4074;SDS011;2052;53.522;9.806;2023-05-23T05:15:11;69.93;;;36.47;;
4074;SDS011;2052;53.522;9.806;2023-05-23T05:17:38;83.53;;;38.33;;
4074;SDS011;2052;53.522;9.806;2023-05-23T05:20:05;86.83;;;39.20;;
4074;SDS011;2052;53.522;9.806;2023-05-23T05:22:32;83.90;;;38.00;;
4074;SDS011;2052;53.522;9.806;2023-05-23T05:24:59;93.97;;;39.47;;
4074;SDS011;2052;53.522;9.806;2023-05-23T05:27:27;77.40;;;38.40;;
4074;SDS011;2052;53.522;9.806;2023-05-23T05:29:55;82.40;;;38.70;;
4074;SDS011;2052;53.522;9.806;2023-05-23T05:32:22;81.43;;;40.50;;
4074;SDS011;2052;53.522;9.806;2023-05-23T05:34:49;84.20;;;38.77;;
4074;SDS011;2052;53.522;9.806;2023-05-23T05:37:16;96.00;;;40.47;;
4074;SDS011;2052;53.522;9.806;2023-05-23T05:39:42;77.17;;;37.07;;
4074;SDS011;2052;53.522;9.806;2023-05-23T05:42:09;77.43;;;37.47;;
4074;SDS011;2052;53.522;9.806;2023-05-23T05:44:35;83.47;;;38.33;;
4074;SDS011;2052;53.522;9.806;2023-05-23T05:47:04;71.20;;;36.83;;
4074;SDS011;2052;53.522;9.806;2023-05-23T05:49:31;66.83;;;34.33;;
4074;SDS011;2052;53.522;9.806;2023-05-23T05:51:57;68.73;;;37.70;;
4074;SDS011;2052;53.522;9.806;2023-05-23T05:54:24;66.67;;;34.20;;
4074;SDS011;2052;53.522;9.806;2023-05-23T05:56:50;64.23;;;34.43;;
4074;SDS011;2052;53.522;9.806;2023-05-23T05:59:17;70.73;;;36.33;;
4074;SDS011;2052;53.522;9.806;2023-05-23T06:01:43;68.37;;;36.20;;
4074;SDS011;2052;53.522;9.806;2023-05-23T06:04:11;76.63;;;38.27;;
4074;SDS011;2052;53.522;9.806;2023-05-23T06:06:38;68.23;;;36.77;;
4074;SDS011;2052;53.522;9.806;2023-05-23T06:09:05;75.60;;;37.67;;
4074;SDS011;2052;53.522;9.806;2023-05-23T06:11:31;81.97;;;37.73;;
4074;SDS011;2052;53.522;9.806;2023-05-23T06:13:58;88.00;;;42.00;;
4074;SDS011;2052;53.522;9.806;2023-05-23T06:16:24;100.10;;;41.03;;
4074;SDS011;2052;53.522;9.806;2023-05-23T06:18:51;101.63;;;44.17;;
4074;SDS011;2052;53.522;9.806;2023-05-23T06:21:19;96.07;;;43.83;;
4074;SDS011;2052;53.522;9.806;2023-05-23T06:23:45;111.10;;;44.00;;
4074;SDS011;2052;53.522;9.806;2023-05-23T06:26:12;89.43;;;41.50;;
4074;SDS011;2052;53.522;9.806;2023-05-23T06:28:39;79.63;;;36.80;;
4074;SDS011;2052;53.522;9.806;2023-05-23T06:31:05;72.13;;;36.73;;
4074;SDS011;2052;53.522;9.806;2023-05-23T06:33:33;68.70;;;34.77;;
4074;SDS011;2052;53.522;9.806;2023-05-23T06:36:00;75.27;;;36.03;;
4074;SDS011;2052;53.522;9.806;2023-05-23T06:38:30;68.27;;;33.67;;
4074;SDS011;2052;53.522;9.806;2023-05-23T06:40:57;58.20;;;34.60;;
4074;SDS011;2052;53.522;9.806;2023-05-23T06:43:24;60.77;;;31.57;;
4074;SDS011;2052;53.522;9.806;2023-05-23T06:45:51;52.47;;;30.87;;
4074;SDS011;2052;53.522;9.806;2023-05-23T06:48:17;55.13;;;29.50;;
4074;SDS011;2052;53.522;9.806;2023-05-23T06:50:44;46.97;;;28.27;;
4074;SDS011;2052;53.522;9.806;2023-05-23T06:53:11;40.60;;;26.47;;
4074;SDS011;2052;53.522;9.806;2023-05-23T06:55:39;29.47;;;20.23;;
4074;SDS011;2052;53.522;9.806;2023-05-23T06:58:06;29.20;;;18.33;;
4074;SDS011;2052;53.522;9.806;2023-05-23T07:00:33;28.03;;;17.70;;
4074;SDS011;2052;53.522;9.806;2023-05-23T07:02:59;27.60;;;17.27;;
4074;SDS011;2052;53.522;9.806;2023-05-23T07:05:28;25.20;;;16.03;;
4074;SDS011;2052;53.522;9.806;2023-05-23T07:07:57;24.33;;;17.13;;
4074;SDS011;2052;53.522;9.806;2023-05-23T07:10:23;20.20;;;16.10;;
4074;SDS011;2052;53.522;9.806;2023-05-23T07:12:52;23.07;;;16.33;;
4074;SDS011;2052;53.522;9.806;2023-05-23T07:15:18;24.93;;;16.37;;
4074;SDS011;2052;53.522;9.806;2023-05-23T07:17:45;23.80;;;16.30;;
4074;SDS011;2052;53.522;9.806;2023-05-23T07:20:11;19.20;;;14.10;;
4074;SDS011;2052;53.522;9.806;2023-05-23T07:22:38;20.73;;;14.90;;
4074;SDS011;2052;53.522;9.806;2023-05-23T07:25:05;22.93;;;14.70;;
4074;SDS011;2052;53.522;9.806;2023-05-23T07:27:35;17.10;;;13.50;;
4074;SDS011;2052;53.522;9.806;2023-05-23T07:30:03;19.63;;;14.03;;
4074;SDS011;2052;53.522;9.806;2023-05-23T07:32:31;20.03;;;14.20;;
4074;SDS011;2052;53.522;9.806;2023-05-23T07:34:58;17.30;;;13.47;;
4074;SDS011;2052;53.522;9.806;2023-05-23T07:37:24;20.20;;;14.30;;
4074;SDS011;2052;53.522;9.806;2023-05-23T07:39:52;20.03;;;13.60;;
4074;SDS011;2052;53.522;9.806;2023-05-23T07:42:18;18.10;;;12.27;;
4074;SDS011;2052;53.522;9.806;2023-05-23T07:44:45;17.90;;;12.10;;
4074;SDS011;2052;53.522;9.806;2023-05-23T07:47:14;20.20;;;12.70;;
4074;SDS011;2052;53.522;9.806;2023-05-23T07:49:40;15.83;;;12.93;;
4074;SDS011;2052;53.522;9.806;2023-05-23T07:52:07;17.60;;;12.93;;
4074;SDS011;2052;53.522;9.806;2023-05-23T07:54:33;17.60;;;12.30;;
4074;SDS011;2052;53.522;9.806;2023-05-23T07:57:00;19.80;;;13.10;;
4074;SDS011;2052;53.522;9.806;2023-05-23T07:59:26;13.60;;;11.60;;
4074;SDS011;2052;53.522;9.806;2023-05-23T08:01:56;13.40;;;10.33;;
4074;SDS011;2052;53.522;9.806;2023-05-23T08:04:24;13.27;;;10.40;;
4074;SDS011;2052;53.522;9.806;2023-05-23T08:06:51;12.50;;;9.20;;
4074;SDS011;2052;53.522;9.806;2023-05-23T08:09:19;13.17;;;10.30;;
4074;SDS011;2052;53.522;9.806;2023-05-23T08:11:46;12.73;;;9.40;;
4074;SDS011;2052;53.522;9.806;2023-05-23T08:14:12;12.13;;;9.70;;
4074;SDS011;2052;53.522;9.806;2023-05-23T08:16:39;13.50;;;10.50;;
4074;SDS011;2052;53.522;9.806;2023-05-23T08:19:08;12.00;;;10.07;;
4074;SDS011;2052;53.522;9.806;2023-05-23T08:21:39;12.40;;;9.80;;
4074;SDS011;2052;53.522;9.806;2023-05-23T08:24:08;19.63;;;11.50;;
4074;SDS011;2052;53.522;9.806;2023-05-23T08:26:35;12.20;;;10.37;;
4074;SDS011;2052;53.522;9.806;2023-05-23T08:29:01;13.03;;;10.83;;
4074;SDS011;2052;53.522;9.806;2023-05-23T08:31:29;17.43;;;11.73;;
4074;SDS011;2052;53.522;9.806;2023-05-23T08:33:55;19.60;;;12.37;;
4074;SDS011;2052;53.522;9.806;2023-05-23T08:36:22;21.33;;;13.90;;
4074;SDS011;2052;53.522;9.806;2023-05-23T08:38:50;17.90;;;12.20;;
4074;SDS011;2052;53.522;9.806;2023-05-23T08:41:18;19.43;;;12.17;;
4074;SDS011;2052;53.522;9.806;2023-05-23T08:43:46;19.83;;;12.90;;
4074;SDS011;2052;53.522;9.806;2023-05-23T08:46:20;20.40;;;13.20;;
4074;SDS011;2052;53.522;9.806;2023-05-23T08:48:49;28.03;;;14.60;;
4074;SDS011;2052;53.522;9.806;2023-05-23T08:51:16;23.70;;;15.00;;
4074;SDS011;2052;53.522;9.806;2023-05-23T08:53:44;23.50;;;13.00;;
4074;SDS011;2052;53.522;9.806;2023-05-23T08:56:13;22.87;;;13.20;;
4074;SDS011;2052;53.522;9.806;2023-05-23T08:58:43;23.17;;;14.53;;
4074;SDS011;2052;53.522;9.806;2023-05-23T09:01:14;26.37;;;13.70;;
4074;SDS011;2052;53.522;9.806;2023-05-23T09:03:44;21.20;;;11.70;;
4074;SDS011;2052;53.522;9.806;2023-05-23T09:06:11;31.70;;;13.57;;
4074;SDS011;2052;53.522;9.806;2023-05-23T09:08:38;26.10;;;15.30;;
4074;SDS011;2052;53.522;9.806;2023-05-23T09:11:05;25.40;;;17.43;;
4074;SDS011;2052;53.522;9.806;2023-05-23T09:13:36;26.50;;;17.67;;
4074;SDS011;2052;53.522;9.806;2023-05-23T09:16:04;19.83;;;13.30;;
4074;SDS011;2052;53.522;9.806;2023-05-23T09:18:32;25.13;;;11.67;;
4074;SDS011;2052;53.522;9.806;2023-05-23T09:21:01;18.20;;;10.00;;
4074;SDS011;2052;53.522;9.806;2023-05-23T09:23:28;19.23;;;9.90;;
4074;SDS011;2052;53.522;9.806;2023-05-23T09:25:59;15.43;;;7.03;;
4074;SDS011;2052;53.522;9.806;2023-05-23T09:28:27;11.23;;;6.30;;
4074;SDS011;2052;53.522;9.806;2023-05-23T09:30:58;10.17;;;5.90;;
4074;SDS011;2052;53.522;9.806;2023-05-23T09:33:32;10.60;;;5.50;;
4074;SDS011;2052;53.522;9.806;2023-05-23T09:36:02;12.57;;;5.30;;
4074;SDS011;2052;53.522;9.806;2023-05-23T09:38:29;14.53;;;5.23;;
4074;SDS011;2052;53.522;9.806;2023-05-23T09:40:58;16.70;;;5.83;;
4074;SDS011;2052;53.522;9.806;2023-05-23T09:43:24;7.90;;;5.23;;
4074;SDS011;2052;53.522;9.806;2023-05-23T09:45:52;9.57;;;5.07;;
4074;SDS011;2052;53.522;9.806;2023-05-23T09:48:21;9.23;;;5.90;;
4074;SDS011;2052;53.522;9.806;2023-05-23T09:50:53;10.77;;;5.97;;
4074;SDS011;2052;53.522;9.806;2023-05-23T09:53:20;9.83;;;7.20;;
4074;SDS011;2052;53.522;9.806;2023-05-23T09:55:47;17.97;;;5.83;;
4074;SDS011;2052;53.522;9.806;2023-05-23T09:58:15;8.87;;;5.13;;
4074;SDS011;2052;53.522;9.806;2023-05-23T10:00:42;6.60;;;4.10;;
4074;SDS011;2052;53.522;9.806;2023-05-23T10:03:10;10.67;;;4.60;;
4074;SDS011;2052;53.522;9.806;2023-05-23T10:05:42;9.80;;;5.00;;
4074;SDS011;2052;53.522;9.806;2023-05-23T10:08:11;9.97;;;5.37;;
4074;SDS011;2052;53.522;9.806;2023-05-23T10:11:17;9.63;;;5.37;;
4074;SDS011;2052;53.522;9.806;2023-05-23T10:14:04;11.87;;;8.63;;
4074;SDS011;2052;53.522;9.806;2023-05-23T10:16:34;16.30;;;10.73;;
4074;SDS011;2052;53.522;9.806;2023-05-23T10:19:05;16.67;;;10.73;;
4074;SDS011;2052;53.522;9.806;2023-05-23T10:21:34;14.90;;;8.20;;
4074;SDS011;2052;53.522;9.806;2023-05-23T10:24:02;12.07;;;6.80;;
4074;SDS011;2052;53.522;9.806;2023-05-23T10:26:29;8.90;;;5.30;;
4074;SDS011;2052;53.522;9.806;2023-05-23T10:28:55;13.77;;;7.77;;
4074;SDS011;2052;53.522;9.806;2023-05-23T10:31:22;17.00;;;9.57;;
4074;SDS011;2052;53.522;9.806;2023-05-23T10:33:51;19.80;;;11.50;;
4074;SDS011;2052;53.522;9.806;2023-05-23T10:36:21;17.63;;;11.83;;
4074;SDS011;2052;53.522;9.806;2023-05-23T10:38:54;15.00;;;10.80;;
4074;SDS011;2052;53.522;9.806;2023-05-23T10:41:28;14.67;;;10.20;;
4074;SDS011;2052;53.522;9.806;2023-05-23T10:44:00;18.60;;;9.10;;
4074;SDS011;2052;53.522;9.806;2023-05-23T10:46:49;14.83;;;9.10;;
4074;SDS011;2052;53.522;9.806;2023-05-23T10:49:17;15.53;;;8.20;;
4074;SDS011;2052;53.522;9.806;2023-05-23T10:51:45;18.10;;;8.00;;
4074;SDS011;2052;53.522;9.806;2023-05-23T10:54:20;14.37;;;7.90;;
4074;SDS011;2052;53.522;9.806;2023-05-23T10:56:46;14.27;;;7.10;;
4074;SDS011;2052;53.522;9.806;2023-05-23T10:59:18;13.73;;;7.17;;
4074;SDS011;2052;53.522;9.806;2023-05-23T11:01:46;23.97;;;8.00;;
4074;SDS011;2052;53.522;9.806;2023-05-23T11:04:23;20.03;;;7.60;;
4074;SDS011;2052;53.522;9.806;2023-05-23T11:06:52;20.03;;;7.40;;
4074;SDS011;2052;53.522;9.806;2023-05-23T11:09:24;10.97;;;6.37;;
4074;SDS011;2052;53.522;9.806;2023-05-23T11:11:52;13.70;;;7.30;;
4074;SDS011;2052;53.522;9.806;2023-05-23T11:17:22;24.63;;;6.87;;
4074;SDS011;2052;53.522;9.806;2023-05-23T11:19:58;17.37;;;7.10;;
4074;SDS011;2052;53.522;9.806;2023-05-23T11:22:28;18.60;;;8.07;;
4074;SDS011;2052;53.522;9.806;2023-05-23T11:24:57;24.70;;;9.10;;
4074;SDS011;2052;53.522;9.806;2023-05-23T11:27:24;14.83;;;8.40;;
4074;SDS011;2052;53.522;9.806;2023-05-23T11:30:00;16.50;;;8.60;;
4074;SDS011;2052;53.522;9.806;2023-05-23T11:32:29;14.37;;;7.63;;
4074;SDS011;2052;53.522;9.806;2023-05-23T11:34:58;22.10;;;7.37;;
4074;SDS011;2052;53.522;9.806;2023-05-23T11:37:25;10.00;;;6.30;;
4074;SDS011;2052;53.522;9.806;2023-05-23T11:39:53;14.30;;;6.40;;
4074;SDS011;2052;53.522;9.806;2023-05-23T11:42:24;14.27;;;7.47;;
4074;SDS011;2052;53.522;9.806;2023-05-23T11:44:52;13.00;;;5.87;;
4074;SDS011;2052;53.522;9.806;2023-05-23T11:47:22;21.83;;;5.50;;
4074;SDS011;2052;53.522;9.806;2023-05-23T11:49:50;15.80;;;5.43;;
4074;SDS011;2052;53.522;9.806;2023-05-23T11:52:19;13.40;;;5.90;;
4074;SDS011;2052;53.522;9.806;2023-05-23T11:54:47;14.50;;;5.83;;
4074;SDS011;2052;53.522;9.806;2023-05-23T11:57:16;11.53;;;5.53;;
4074;SDS011;2052;53.522;9.806;2023-05-23T11:59:44;16.50;;;4.60;;
4074;SDS011;2052;53.522;9.806;2023-05-23T12:02:11;11.10;;;4.37;;
4074;SDS011;2052;53.522;9.806;2023-05-23T12:04:38;16.40;;;5.10;;
4074;SDS011;2052;53.522;9.806;2023-05-23T12:07:07;11.70;;;4.60;;
4074;SDS011;2052;53.522;9.806;2023-05-23T12:09:41;27.13;;;6.07;;
4074;SDS011;2052;53.522;9.806;2023-05-23T12:12:09;20.17;;;5.80;;
4074;SDS011;2052;53.522;9.806;2023-05-23T12:14:40;12.37;;;5.70;;
4074;SDS011;2052;53.522;9.806;2023-05-23T12:17:13;16.70;;;6.00;;
4074;SDS011;2052;53.522;9.806;2023-05-23T12:19:44;13.10;;;4.77;;
4074;SDS011;2052;53.522;9.806;2023-05-23T12:22:13;10.70;;;4.57;;
4074;SDS011;2052;53.522;9.806;2023-05-23T12:24:45;16.67;;;5.53;;
4074;SDS011;2052;53.522;9.806;2023-05-23T12:27:12;14.60;;;5.57;;
4074;SDS011;2052;53.522;9.806;2023-05-23T12:29:39;11.40;;;4.33;;
4074;SDS011;2052;53.522;9.806;2023-05-23T12:32:07;12.10;;;6.00;;
4074;SDS011;2052;53.522;9.806;2023-05-23T12:34:35;12.57;;;5.40;;
4074;SDS011;2052;53.522;9.806;2023-05-23T12:37:08;11.53;;;5.60;;
4074;SDS011;2052;53.522;9.806;2023-05-23T12:39:38;11.93;;;5.40;;
4074;SDS011;2052;53.522;9.806;2023-05-23T12:42:08;13.20;;;4.70;;
4074;SDS011;2052;53.522;9.806;2023-05-23T12:44:39;10.60;;;4.33;;
4074;SDS011;2052;53.522;9.806;2023-05-23T12:47:07;8.47;;;4.10;;
4074;SDS011;2052;53.522;9.806;2023-05-23T12:49:41;11.93;;;5.20;;
4074;SDS011;2052;53.522;9.806;2023-05-23T12:52:08;11.80;;;4.33;;
4074;SDS011;2052;53.522;9.806;2023-05-23T12:54:35;14.63;;;6.17;;
4074;SDS011;2052;53.522;9.806;2023-05-23T12:57:02;17.90;;;5.20;;
4074;SDS011;2052;53.522;9.806;2023-05-23T12:59:30;13.20;;;4.80;;
4074;SDS011;2052;53.522;9.806;2023-05-23T13:01:57;16.27;;;4.60;;
4074;SDS011;2052;53.522;9.806;2023-05-23T13:04:26;12.10;;;6.33;;
4074;SDS011;2052;53.522;9.806;2023-05-23T13:06:55;14.53;;;4.40;;
4074;SDS011;2052;53.522;9.806;2023-05-23T13:09:22;12.33;;;4.67;;
4074;SDS011;2052;53.522;9.806;2023-05-23T13:11:49;12.03;;;5.50;;
4074;SDS011;2052;53.522;9.806;2023-05-23T13:14:16;36.00;;;5.40;;
4074;SDS011;2052;53.522;9.806;2023-05-23T13:16:43;19.53;;;5.03;;
4074;SDS011;2052;53.522;9.806;2023-05-23T13:19:11;15.53;;;6.00;;
4074;SDS011;2052;53.522;9.806;2023-05-23T13:21:38;14.90;;;4.30;;
4074;SDS011;2052;53.522;9.806;2023-05-23T13:24:06;16.03;;;4.23;;
4074;SDS011;2052;53.522;9.806;2023-05-23T13:26:33;14.20;;;5.10;;
4074;SDS011;2052;53.522;9.806;2023-05-23T13:29:04;12.63;;;4.60;;
4074;SDS011;2052;53.522;9.806;2023-05-23T13:31:32;17.63;;;4.63;;
4074;SDS011;2052;53.522;9.806;2023-05-23T13:33:58;16.63;;;4.77;;
4074;SDS011;2052;53.522;9.806;2023-05-23T13:36:27;12.80;;;4.57;;
4074;SDS011;2052;53.522;9.806;2023-05-23T13:38:53;15.83;;;4.40;;
4074;SDS011;2052;53.522;9.806;2023-05-23T13:41:22;15.17;;;4.47;;
4074;SDS011;2052;53.522;9.806;2023-05-23T13:43:49;18.33;;;6.10;;
4074;SDS011;2052;53.522;9.806;2023-05-23T13:46:16;12.83;;;4.70;;
4074;SDS011;2052;53.522;9.806;2023-05-23T13:48:44;13.53;;;4.90;;
4074;SDS011;2052;53.522;9.806;2023-05-23T13:51:11;20.30;;;5.10;;
4074;SDS011;2052;53.522;9.806;2023-05-23T13:53:38;10.37;;;4.47;;
4074;SDS011;2052;53.522;9.806;2023-05-23T13:56:05;21.17;;;5.10;;
4074;SDS011;2052;53.522;9.806;2023-05-23T13:58:34;17.57;;;4.20;;
4074;SDS011;2052;53.522;9.806;2023-05-23T14:01:00;11.50;;;4.50;;
4074;SDS011;2052;53.522;9.806;2023-05-23T14:03:31;14.33;;;4.37;;
4074;SDS011;2052;53.522;9.806;2023-05-23T14:06:02;16.50;;;4.07;;
4074;SDS011;2052;53.522;9.806;2023-05-23T14:08:29;11.47;;;4.77;;
4074;SDS011;2052;53.522;9.806;2023-05-23T14:10:57;10.67;;;4.47;;
4074;SDS011;2052;53.522;9.806;2023-05-23T14:13:23;19.80;;;4.23;;
4074;SDS011;2052;53.522;9.806;2023-05-23T14:15:51;17.77;;;5.77;;
4074;SDS011;2052;53.522;9.806;2023-05-23T14:18:18;8.90;;;3.87;;
4074;SDS011;2052;53.522;9.806;2023-05-23T14:20:45;13.30;;;4.30;;
4074;SDS011;2052;53.522;9.806;2023-05-23T14:23:12;12.80;;;4.23;;
4074;SDS011;2052;53.522;9.806;2023-05-23T14:25:38;11.80;;;3.83;;
4074;SDS011;2052;53.522;9.806;2023-05-23T14:28:05;17.73;;;4.73;;
4074;SDS011;2052;53.522;9.806;2023-05-23T14:30:31;15.00;;;4.73;;
4074;SDS011;2052;53.522;9.806;2023-05-23T14:32:59;17.13;;;4.90;;
4074;SDS011;2052;53.522;9.806;2023-05-23T14:35:26;12.23;;;4.47;;
4074;SDS011;2052;53.522;9.806;2023-05-23T14:37:53;17.43;;;4.90;;
4074;SDS011;2052;53.522;9.806;2023-05-23T14:40:20;14.80;;;4.43;;
4074;SDS011;2052;53.522;9.806;2023-05-23T14:42:47;14.23;;;4.50;;
4074;SDS011;2052;53.522;9.806;2023-05-23T14:45:14;15.27;;;3.63;;
4074;SDS011;2052;53.522;9.806;2023-05-23T14:47:40;10.93;;;2.83;;
4074;SDS011;2052;53.522;9.806;2023-05-23T14:50:09;14.97;;;3.53;;
4074;SDS011;2052;53.522;9.806;2023-05-23T14:52:37;11.77;;;3.77;;
4074;SDS011;2052;53.522;9.806;2023-05-23T14:55:04;18.60;;;4.73;;
4074;SDS011;2052;53.522;9.806;2023-05-23T14:57:31;19.17;;;4.73;;
4074;SDS011;2052;53.522;9.806;2023-05-23T14:59:58;17.83;;;4.70;;
4074;SDS011;2052;53.522;9.806;2023-05-23T15:02:25;14.40;;;4.40;;